ADDS METAR Data INFO
IDs: Format: Raw Decoded Include TAF

Data at: 1321 UTC 11 Dec 2017

K66R 111315Z AUTO 00000KT 10SM CLR A3034 RMK AO2
K66R 111255Z AUTO 00000KT 10SM CLR 01/00 A3034 RMK AO2 T00070000
K66R 111235Z AUTO 00000KT 10SM CLR A3034 RMK AO2
K66R 111215Z AUTO 00000KT 10SM CLR A3034 RMK AO2
K66R 111155Z AUTO 00000KT 10SM CLR A3034 RMK AO2
K66R 111135Z AUTO 00000KT 10SM CLR 02/01 A3034 RMK AO2 T00180005
K66R 111115Z AUTO 00000KT 10SM CLR 01/00 A3034 RMK AO2 T00130001
K66R 111055Z AUTO 00000KT 10SM CLR A3034 RMK AO2
K66R 111035Z AUTO 00000KT 10SM CLR A3035 RMK AO2
K66R 111015Z AUTO 00000KT 10SM CLR 01/00 A3034 RMK AO2 T00110000
K66R 110955Z AUTO 00000KT 10SM CLR A3035 RMK AO2
K66R 110935Z AUTO 27003KT 10SM CLR A3034 RMK AO2
K66R 110915Z AUTO 00000KT 10SM CLR A3034 RMK AO2
K66R 110855Z AUTO 00000KT 10SM CLR 03/01 A3034 RMK AO2 T00270006
K66R 110835Z AUTO 00000KT 10SM CLR A3034 RMK AO2
K66R 110815Z AUTO 26003KT 10SM CLR A3035 RMK AO2
K66R 110755Z AUTO 25003KT 10SM CLR 05/01 A3035 RMK AO2 T00520010
K66R 110735Z AUTO 24004KT 10SM CLR A3036 RMK AO2
K66R 110715Z AUTO 24005KT 10SM CLR A3036 RMK AO2
K66R 110655Z AUTO 24004KT 10SM CLR A3037 RMK AO2
K66R 110635Z AUTO 23004KT 10SM CLR A3037 RMK AO2
K66R 110615Z AUTO 24005KT 10SM CLR A3038 RMK AO2
K66R 110555Z AUTO 23004KT 10SM CLR A3038 RMK AO2
K66R 110535Z AUTO 23004KT 10SM CLR A3038 RMK AO2
K66R 110515Z AUTO 23003KT 10SM CLR A3038 RMK AO2
K66R 110455Z AUTO 00000KT 10SM CLR A3038 RMK AO2
K66R 110435Z AUTO 23003KT 10SM CLR A3038 RMK AO2
K66R 110415Z AUTO 22003KT 10SM CLR A3039 RMK AO2
K66R 110355Z AUTO 00000KT 10SM CLR A3039 RMK AO2
K66R 110335Z AUTO 00000KT 10SM CLR A3039 RMK AO2
K66R 110315Z AUTO 00000KT 10SM CLR A3039 RMK AO2
K66R 110255Z AUTO 00000KT 10SM CLR A3039 RMK AO2
K66R 110235Z AUTO 21003KT 10SM CLR A3040 RMK AO2
K66R 110210Z AUTO 00000KT 10SM CLR A3040 RMK AO2
K66R 110155Z AUTO 00000KT 10SM CLR A3040 RMK AO2
K66R 110135Z AUTO 22003KT 10SM CLR A3040 RMK AO2
K66R 110115Z AUTO 00000KT 10SM CLR A3039 RMK AO2
K66R 110055Z AUTO 21003KT 10SM CLR A3038 RMK AO2
K66R 110035Z AUTO 00000KT 10SM CLR A3038 RMK AO2
K66R 110015Z AUTO 00000KT 10SM CLR A3039 RMK AO2
K66R 102355Z AUTO 00000KT 10SM CLR A3038 RMK AO2
K66R 102335Z AUTO 00000KT 10SM CLR A3038 RMK AO2
K66R 102315Z AUTO 00000KT 10SM CLR A3038 RMK AO2
K66R 102255Z AUTO 00000KT 10SM CLR A3038 RMK AO2
K66R 102235Z AUTO 27006KT 10SM CLR A3038 RMK AO2
K66R 102215Z AUTO 27004KT 10SM CLR A3039 RMK AO2
K66R 102155Z AUTO 27007KT 10SM CLR A3039 RMK AO2
K66R 102135Z AUTO 00000KT 10SM CLR A3038 RMK AO2
K66R 102115Z AUTO 26003KT 10SM CLR A3039 RMK AO2
K66R 102055Z AUTO 26003KT 10SM CLR A3039 RMK AO2
K66R 102035Z AUTO 00000KT 10SM CLR A3039 RMK AO2
K66R 102015Z AUTO 31003KT 10SM CLR A3039 RMK AO2
K66R 101955Z AUTO 33005KT 10SM CLR A3040 RMK AO2
K66R 101935Z AUTO 34004KT 10SM CLR A3041 RMK AO2
K66R 101915Z AUTO 25004KT 10SM CLR A3042 RMK AO2
K66R 101855Z AUTO 21004KT 10SM CLR A3043 RMK AO2
K66R 101835Z AUTO 27005KT 10SM CLR A3043 RMK AO2
K66R 101815Z AUTO 00000KT 10SM CLR A3044 RMK AO2
K66R 101755Z AUTO 00000KT 10SM CLR A3046 RMK AO2
K66R 101735Z AUTO 25003KT 10SM CLR A3047 RMK AO2
K66R 101715Z AUTO 26004KT 10SM CLR A3048 RMK AO2
K66R 101655Z AUTO 00000KT 10SM CLR A3048 RMK AO2
K66R 101635Z AUTO 00000KT 10SM CLR A3048 RMK AO2
K66R 101615Z AUTO 00000KT 10SM CLR A3048 RMK AO2
K66R 101555Z AUTO 35003KT 10SM CLR A3049 RMK AO2
K66R 101535Z AUTO 00000KT 10SM CLR A3048 RMK AO2
K66R 101515Z AUTO 00000KT 10SM CLR A3048 RMK AO2
K66R 101455Z AUTO 33003KT 10SM CLR A3046 RMK AO2
K66R 101435Z AUTO 33003KT 10SM CLR A3046 RMK AO2
K66R 101415Z AUTO 00000KT 10SM CLR A3045 RMK AO2
K66R 101355Z AUTO 00000KT 10SM CLR A3045 RMK AO2
K66R 101335Z AUTO 00000KT 10SM CLR A3044 RMK AO2
K66R 101315Z AUTO 00000KT 10SM CLR 00/M01 A3044 RMK AO2 T10021013
K66R 101255Z AUTO 00000KT 10SM CLR 00/00 A3043 RMK AO2 T00011005
K66R 101235Z AUTO 00000KT 10SM CLR 00/00 A3043 RMK AO2 T00031004
K66R 101215Z AUTO 00000KT 10SM CLR 00/00 A3042 RMK AO2 T00041003
K66R 101155Z AUTO 00000KT 10SM CLR 01/00 A3042 RMK AO2 T00100000
K66R 101135Z AUTO 00000KT 10SM CLR A3041 RMK AO2
K66R 101115Z AUTO 00000KT 10SM CLR A3040 RMK AO2
K66R 101055Z AUTO 00000KT 10SM CLR A3039 RMK AO2
K66R 101035Z AUTO 35004KT 10SM CLR A3039 RMK AO2
K66R 101015Z AUTO 00000KT 10SM CLR A3040 RMK AO2
K66R 100955Z AUTO 34004KT 10SM CLR A3040 RMK AO2
K66R 100935Z AUTO 00000KT 10SM CLR A3041 RMK AO2
K66R 100915Z AUTO 00000KT 10SM CLR A3041 RMK AO2
K66R 100855Z AUTO 32003KT 10SM CLR A3040 RMK AO2
K66R 100835Z AUTO 00000KT 10SM CLR A3040 RMK AO2
K66R 100815Z AUTO 34003KT 10SM CLR A3039 RMK AO2
K66R 100755Z AUTO 34004KT 10SM CLR A3039 RMK AO2
K66R 100735Z AUTO 34003KT 10SM CLR 02/01 A3039 RMK AO2 T00190007
K66R 100715Z AUTO 00000KT 10SM CLR A3040 RMK AO2
K66R 100655Z AUTO 32003KT 10SM CLR A3040 RMK AO2
K66R 100635Z AUTO 00000KT 10SM CLR A3040 RMK AO2
K66R 100615Z AUTO 00000KT 10SM CLR A3040 RMK AO2
K66R 100555Z AUTO 00000KT 10SM CLR 02/01 A3040 RMK AO2 T00170006
K66R 100530Z AUTO 00000KT 10SM CLR A3039 RMK AO2
K66R 100515Z AUTO 00000KT 10SM CLR A3038 RMK AO2
K66R 100455Z AUTO 33003KT 10SM CLR A3038 RMK AO2
K66R 100435Z AUTO 00000KT 10SM CLR A3038 RMK AO2
K66R 100415Z AUTO 00000KT 10SM CLR A3037 RMK AO2
K66R 100355Z AUTO 28003KT 10SM CLR A3036 RMK AO2
K66R 100335Z AUTO 25003KT 10SM CLR A3036 RMK AO2
K66R 100315Z AUTO 26003KT 10SM CLR A3035 RMK AO2
K66R 100255Z AUTO 27003KT 10SM CLR A3034 RMK AO2
K66R 100235Z AUTO 26003KT 10SM CLR 05/03 A3033 RMK AO2 T00500028
K66R 100215Z AUTO 00000KT 10SM CLR 06/02 A3033 RMK AO2 T00550022
K66R 100155Z AUTO 00000KT 10SM CLR 05/03 A3033 RMK AO2 T00520026
K66R 100135Z AUTO 00000KT 10SM CLR 06/03 A3032 RMK AO2 T00590027